Time;durP1;ratioP1;P1;durP2;ratioP2;P2;SDS_P1;SDS_P2;PMS_P1;PMS_P2;Temp;Humidity;BMP_temperature;BMP_pressure;BME280_temperature;BME280_humidity;BME280_pressure;Samples;Min_cycle;Max_cycle;Signal;HPM_P1;HPM_P2
2021/07/14 00:00:18;;;;;;;5.35;2.60;;;;;;;15.47;84.50;101587.44;4999338;28;20041;-81
2021/07/14 00:02:45;;;;;;;7.65;2.80;;;;;;;15.51;85.11;101593.34;5010003;28;20049;-81
2021/07/14 00:05:13;;;;;;;6.75;3.35;;;;;;;15.38;84.98;101575.03;4998859;28;20487;-80
2021/07/14 00:07:39;;;;;;;7.45;2.65;;;;;;;15.53;85.02;101599.38;4999503;28;20045;-82
2021/07/14 00:10:20;;;;;;;5.30;3.15;;;;;;;15.56;84.78;101609.88;5018554;28;20125;-81
2021/07/14 00:13:01;;;;;;;5.63;3.00;;;;;;;15.57;84.79;101606.13;5006722;28;20056;-81
2021/07/14 00:23:17;;;;;;;5.75;2.95;;;;;;;15.50;85.05;101600.59;5021690;28;20046;-80
2021/07/14 00:25:42;;;;;;;7.50;2.70;;;;;;;15.50;85.27;101616.03;5013415;28;20026;-81
2021/07/14 00:28:07;;;;;;;6.45;2.70;;;;;;;15.39;85.70;101612.75;5015945;28;20026;-81
2021/07/14 00:30:36;;;;;;;4.85;2.60;;;;;;;15.41;85.82;101617.16;4999985;28;20037;-81
2021/07/14 00:33:02;;;;;;;6.07;2.25;;;;;;;15.50;86.52;101624.16;5017575;28;20073;-82
2021/07/14 00:35:27;;;;;;;7.70;2.90;;;;;;;15.64;86.36;101625.19;5014365;28;20038;-80
2021/07/14 00:37:52;;;;;;;4.60;2.38;;;;;;;15.63;85.60;101618.91;5016014;28;20586;-81
2021/07/14 00:40:19;;;;;;;6.35;2.92;;;;;;;15.70;85.44;101621.75;5019999;28;20034;-81
2021/07/14 00:42:46;;;;;;;8.65;3.13;;;;;;;15.61;85.56;101624.53;5040589;28;20032;-82
2021/07/14 00:45:12;;;;;;;7.45;2.95;;;;;;;15.62;85.78;101625.38;5019418;28;20030;-81
2021/07/14 00:47:38;;;;;;;5.07;2.80;;;;;;;15.56;86.53;101621.56;5015681;28;20022;-82
2021/07/14 00:50:05;;;;;;;7.43;2.50;;;;;;;15.48;86.93;101628.91;5012765;28;20534;-82
2021/07/14 00:52:31;;;;;;;5.28;2.92;;;;;;;15.51;86.87;101626.69;5015958;28;20034;-81
2021/07/14 00:54:58;;;;;;;5.20;2.65;;;;;;;15.45;86.79;101616.59;5018011;28;20033;-81
2021/07/14 00:57:26;;;;;;;7.53;3.22;;;;;;;15.47;87.05;101628.09;5012188;28;20060;-82
2021/07/14 00:59:52;;;;;;;7.00;2.90;;;;;;;15.41;87.37;101615.28;5015657;28;20110;-81
2021/07/14 01:02:17;;;;;;;6.57;2.70;;;;;;;15.41;87.33;101618.00;5012118;28;20052;-81
2021/07/14 01:04:47;;;;;;;6.57;2.60;;;;;;;15.40;87.68;101621.75;5015732;28;20037;-81
2021/07/14 01:07:50;;;;;;;8.73;3.25;;;;;;;15.43;87.58;101626.78;5013778;28;20037;-81
2021/07/14 01:10:26;;;;;;;7.20;2.85;;;;;;;15.39;87.46;101630.88;5017477;28;20029;-81
2021/07/14 01:13:15;;;;;;;5.85;2.70;;;;;;;15.34;87.77;101625.19;5010724;28;20045;-81
2021/07/14 01:15:52;;;;;;;6.40;3.17;;;;;;;15.36;88.47;101621.25;5014287;28;20021;-81
2021/07/14 01:18:30;;;;;;;6.15;2.63;;;;;;;15.41;88.24;101618.00;5009181;28;20041;-82
2021/07/14 01:21:15;;;;;;;6.28;3.08;;;;;;;15.33;87.89;101610.81;5017855;28;20104;-81
2021/07/14 01:23:40;;;;;;;7.50;2.92;;;;;;;15.42;88.21;101624.25;5008398;28;20607;-81
2021/07/14 01:26:17;;;;;;;6.50;2.53;;;;;;;15.39;88.08;101614.63;5012906;28;20085;-81
2021/07/14 01:28:44;;;;;;;14.25;3.22;;;;;;;15.39;87.90;101626.31;5012747;28;20026;-81
2021/07/14 01:31:12;;;;;;;9.32;3.33;;;;;;;15.41;88.19;101628.00;5013837;28;20506;-82
2021/07/14 01:33:40;;;;;;;12.07;2.88;;;;;;;15.37;88.09;101622.09;5013677;28;20079;-81
2021/07/14 01:36:12;;;;;;;5.25;2.60;;;;;;;15.36;88.46;101623.97;5009161;28;20033;-80
2021/07/14 01:38:39;;;;;;;7.07;2.72;;;;;;;15.42;88.58;101618.84;5009891;28;20129;-81
2021/07/14 01:41:05;;;;;;;7.38;3.13;;;;;;;15.44;88.38;101624.91;5018564;28;20091;-81
2021/07/14 01:43:36;;;;;;;4.95;2.55;;;;;;;15.42;88.13;101621.53;5009672;28;20033;-81
2021/07/14 01:46:02;;;;;;;6.43;2.70;;;;;;;15.36;87.82;101615.84;5023922;28;20034;-81
2021/07/14 01:48:29;;;;;;;8.93;3.13;;;;;;;15.28;87.51;101612.38;5009750;28;20109;-82
2021/07/14 01:50:55;;;;;;;7.95;2.90;;;;;;;15.23;87.06;101604.81;5010494;28;20061;-82
2021/07/14 01:53:22;;;;;;;8.35;2.90;;;;;;;15.28;86.81;101618.66;5010870;28;20021;-81
2021/07/14 01:55:48;;;;;;;5.13;2.78;;;;;;;15.31;86.78;101618.25;5021466;28;20084;-82
2021/07/14 01:58:15;;;;;;;7.13;3.17;;;;;;;15.31;85.84;101618.25;4992151;28;20404;-82
2021/07/14 02:00:41;;;;;;;7.57;2.92;;;;;;;15.29;85.96;101614.91;5009055;28;20022;-81
2021/07/14 02:03:18;;;;;;;6.00;2.60;;;;;;;15.26;85.78;101619.84;5004285;28;20022;-81
2021/07/14 02:05:45;;;;;;;6.50;2.78;;;;;;;15.27;86.04;101621.53;5010931;28;20660;-81
2021/07/14 02:08:10;;;;;;;7.90;2.90;;;;;;;15.30;85.77;101618.47;5010699;28;20131;-82
2021/07/14 02:10:38;;;;;;;8.48;4.22;;;;;;;15.28;85.42;101612.38;5011139;28;20037;-81
2021/07/14 02:13:04;;;;;;;6.18;2.30;;;;;;;15.29;85.57;101611.34;4997583;28;20053;-81
2021/07/14 02:15:31;;;;;;;5.60;2.78;;;;;;;15.29;85.31;101620.31;5015768;28;20099;-82
2021/07/14 02:18:00;;;;;;;8.95;3.10;;;;;;;15.28;85.26;101621.34;5009609;28;20026;-81
2021/07/14 02:20:26;;;;;;;6.90;2.75;;;;;;;15.26;84.92;101620.69;5022213;28;20052;-81
2021/07/14 02:22:52;;;;;;;5.82;2.47;;;;;;;15.15;84.76;101607.59;4997562;28;20485;-81
2021/07/14 02:25:18;;;;;;;7.47;2.58;;;;;;;15.00;85.46;101601.31;5016541;28;20040;-82
2021/07/14 02:27:44;;;;;;;8.45;2.97;;;;;;;15.14;85.22;101623.03;5007135;28;20052;-82
2021/07/14 02:30:21;;;;;;;9.93;2.53;;;;;;;15.11;85.19;101619.81;5018213;28;20026;-81
2021/07/14 02:32:55;;;;;;;8.95;2.40;;;;;;;15.11;84.66;101620.69;5016656;28;20030;-81
2021/07/14 02:35:20;;;;;;;9.52;2.40;;;;;;;15.10;84.80;101624.41;5015862;28;20026;-81
2021/07/14 02:38:20;;;;;;;6.28;2.42;;;;;;;15.12;84.82;101625.06;5019450;28;20023;-81
2021/07/14 02:41:07;;;;;;;8.25;2.47;;;;;;;15.11;84.51;101636.94;5019779;28;20029;-81
2021/07/14 02:43:35;;;;;;;5.20;2.25;;;;;;;15.09;84.29;101630.88;5017047;28;20045;-82
2021/07/14 02:46:05;;;;;;;8.13;2.67;;;;;;;15.03;84.18;101623.47;5016988;28;20034;-81
2021/07/14 02:48:31;;;;;;;7.03;2.30;;;;;;;15.00;84.96;101631.13;4999587;28;20026;-81
2021/07/14 02:50:57;;;;;;;6.05;2.55;;;;;;;14.90;85.00;101615.97;5003416;28;20102;-82
2021/07/14 02:53:25;;;;;;;5.57;2.10;;;;;;;14.97;85.17;101626.91;5016912;28;20026;-81
2021/07/14 02:55:54;;;;;;;7.00;2.45;;;;;;;14.93;84.91;101623.72;5026788;28;20483;-81
2021/07/14 02:58:22;;;;;;;6.00;2.67;;;;;;;14.88;84.72;101625.31;5012569;28;20018;-81
2021/07/14 03:00:48;;;;;;;6.28;2.17;;;;;;;14.78;85.15;101633.69;5012104;28;20124;-82
2021/07/14 03:03:13;;;;;;;8.82;2.70;;;;;;;14.77;85.02;101626.59;5023256;28;20030;-81
2021/07/14 03:05:39;;;;;;;6.70;2.20;;;;;;;14.82;84.56;101631.44;5015583;28;20029;-82
2021/07/14 03:08:09;;;;;;;3.92;2.17;;;;;;;14.86;84.66;101636.31;5014325;28;20026;-81
2021/07/14 03:10:35;;;;;;;6.45;2.08;;;;;;;14.81;85.16;101644.13;5017928;28;20049;-81
2021/07/14 03:13:03;;;;;;;7.07;2.28;;;;;;;14.77;85.25;101637.44;5013651;28;20026;-81
2021/07/14 03:15:32;;;;;;;6.30;2.53;;;;;;;14.73;85.00;101622.56;5016798;28;20022;-82
2021/07/14 03:17:58;;;;;;;7.63;2.13;;;;;;;14.79;84.77;101643.50;5013201;28;20594;-81
2021/07/14 03:20:24;;;;;;;6.68;2.17;;;;;;;14.77;85.23;101631.16;4999996;28;20121;-81
2021/07/14 03:22:51;;;;;;;6.32;2.60;;;;;;;14.69;84.64;101622.09;5002170;28;20079;-81
2021/07/14 03:25:17;;;;;;;5.80;2.10;;;;;;;14.76;84.75;101622.19;5018018;28;20120;-81
2021/07/14 03:27:46;;;;;;;5.38;2.03;;;;;;;14.71;84.71;101617.34;5015177;28;20107;-81
2021/07/14 03:30:13;;;;;;;6.57;2.00;;;;;;;14.82;84.34;101636.84;5013625;28;20391;-81
2021/07/14 03:32:39;;;;;;;6.78;2.38;;;;;;;14.76;83.84;101635.72;4995828;28;20026;-81
2021/07/14 03:35:05;;;;;;;9.15;2.10;;;;;;;14.78;83.87;101639.09;5015876;28;20036;-82
2021/07/14 03:37:31;;;;;;;8.02;2.33;;;;;;;14.67;83.80;101632.25;5012395;28;20038;-81
2021/07/14 03:39:56;;;;;;;5.88;2.17;;;;;;;14.66;83.63;101640.53;5010330;28;20029;-81
2021/07/14 03:42:23;;;;;;;5.82;2.13;;;;;;;14.51;83.64;101643.16;5004462;28;20026;-81
2021/07/14 03:44:48;;;;;;;7.07;2.50;;;;;;;14.45;83.95;101644.75;4994386;28;20030;-81
2021/07/14 03:47:15;;;;;;;5.90;2.05;;;;;;;14.41;84.23;101650.69;5008731;28;20396;-81
2021/07/14 03:49:41;;;;;;;7.47;2.38;;;;;;;14.38;84.53;101648.34;5028668;28;20075;-81
2021/07/14 03:52:07;;;;;;;6.00;2.13;;;;;;;14.35;84.78;101652.25;5026094;28;20104;-79
2021/07/14 03:54:33;;;;;;;7.40;2.35;;;;;;;14.33;85.01;101654.28;5008548;28;20030;-82
2021/07/14 03:56:59;;;;;;;6.82;2.25;;;;;;;14.28;84.35;101662.91;5013214;28;20136;-80
2021/07/14 03:59:25;;;;;;;5.45;2.40;;;;;;;14.21;84.70;101655.69;5012929;28;20052;-79
2021/07/14 04:01:51;;;;;;;8.07;2.38;;;;;;;14.08;85.16;101621.97;5012289;28;20523;-81
2021/07/14 04:04:17;;;;;;;5.47;2.42;;;;;;;14.27;84.51;101652.28;5013829;28;20074;-81
2021/07/14 04:06:46;;;;;;;4.13;2.28;;;;;;;14.25;83.47;101657.88;5014304;28;21035;-81
2021/07/14 04:09:18;;;;;;;6.25;2.40;;;;;;;14.24;83.71;101655.34;5010785;28;20033;-81
2021/07/14 04:11:45;;;;;;;5.45;2.15;;;;;;;14.14;84.36;101654.72;5012298;28;20092;-82
2021/07/14 04:14:10;;;;;;;3.85;2.20;;;;;;;14.13;84.29;101647.63;4995387;28;20041;-80
2021/07/14 04:16:36;;;;;;;11.43;2.35;;;;;;;14.17;84.40;101659.78;5012043;28;20030;-81
2021/07/14 04:19:01;;;;;;;6.50;2.60;;;;;;;14.13;84.11;101655.72;4993471;28;20500;-81
2021/07/14 04:21:27;;;;;;;6.00;2.67;;;;;;;14.14;84.24;101658.28;5008088;28;20021;-81
2021/07/14 04:23:54;;;;;;;4.55;1.90;;;;;;;14.22;84.18;101673.63;5008086;28;20395;-82
2021/07/14 04:26:19;;;;;;;4.05;2.10;;;;;;;14.26;84.22;101667.69;5013545;28;20025;-81
2021/07/14 04:28:45;;;;;;;8.73;2.70;;;;;;;14.24;84.42;101663.47;4997031;28;20140;-81
2021/07/14 04:31:10;;;;;;;5.53;2.10;;;;;;;14.34;84.54;101665.94;5013843;28;20038;-81
2021/07/14 04:33:36;;;;;;;7.28;2.45;;;;;;;14.38;84.14;101660.00;5010311;28;20025;-81
2021/07/14 04:36:01;;;;;;;6.45;2.00;;;;;;;14.39;83.86;101664.38;4991014;28;20041;-81
2021/07/14 04:38:27;;;;;;;9.18;2.33;;;;;;;14.41;83.69;101661.50;5022076;28;20022;-81
2021/07/14 04:40:52;;;;;;;5.75;2.00;;;;;;;14.41;83.66;101662.34;5010171;28;20499;-82
2021/07/14 04:43:18;;;;;;;6.22;2.10;;;;;;;14.25;84.12;101665.97;5010870;28;20049;-81
2021/07/14 04:45:43;;;;;;;5.65;2.15;;;;;;;14.35;84.30;101676.59;5010858;28;20053;-81
2021/07/14 04:48:09;;;;;;;7.82;2.42;;;;;;;14.34;83.59;101680.28;5019981;28;20067;-81
2021/07/14 04:50:35;;;;;;;5.28;2.40;;;;;;;14.29;83.67;101671.91;5017354;28;20614;-81
2021/07/14 04:53:01;;;;;;;11.57;2.65;;;;;;;14.27;83.93;101674.78;5015180;28;20034;-81
2021/07/14 04:55:26;;;;;;;4.68;2.72;;;;;;;14.37;84.10;101689.91;5011987;28;20541;-82
2021/07/14 04:57:51;;;;;;;6.90;3.03;;;;;;;14.34;84.03;101674.03;5016159;28;20081;-82
2021/07/14 05:00:17;;;;;;;6.45;2.45;;;;;;;14.35;83.71;101682.00;5016667;28;20025;-80
2021/07/14 05:02:46;;;;;;;7.57;2.17;;;;;;;14.31;84.12;101691.47;5017617;28;20034;-81
2021/07/14 05:05:15;;;;;;;5.07;2.40;;;;;;;14.34;84.35;101695.69;5012362;28;20029;-81
2021/07/14 05:07:41;;;;;;;4.35;2.35;;;;;;;14.33;83.97;101697.56;5016111;28;20029;-81
2021/07/14 05:10:07;;;;;;;6.45;2.38;;;;;;;14.26;83.84;101694.75;5012054;28;20048;-82
2021/07/14 05:12:33;;;;;;;7.75;2.10;;;;;;;14.14;83.90;101674.50;5015210;28;20049;-81
2021/07/14 05:14:58;;;;;;;7.00;2.60;;;;;;;14.21;84.21;101696.25;5021474;28;20045;-81
2021/07/14 05:17:24;;;;;;;6.13;2.15;;;;;;;14.20;84.53;101702.69;5007112;28;20240;-81
2021/07/14 05:19:49;;;;;;;6.07;2.50;;;;;;;14.17;84.36;101700.34;5014000;28;20022;-81
2021/07/14 05:22:14;;;;;;;6.10;2.38;;;;;;;14.14;84.40;101690.72;4999098;28;20091;-81
2021/07/14 05:24:40;;;;;;;6.68;2.40;;;;;;;14.20;84.46;101697.28;5012387;28;20056;-81
2021/07/14 05:27:06;;;;;;;8.65;2.25;;;;;;;14.25;84.15;101700.31;5014642;28;20032;-81
2021/07/14 05:29:32;;;;;;;7.57;2.40;;;;;;;14.30;84.29;101703.34;5025002;28;20034;-81
2021/07/14 05:31:57;;;;;;;6.10;2.33;;;;;;;14.42;84.06;101711.88;5011772;28;20052;-81
2021/07/14 05:34:22;;;;;;;6.95;2.28;;;;;;;14.48;83.63;101719.31;5014346;28;20885;-81
2021/07/14 05:36:48;;;;;;;4.28;2.10;;;;;;;14.50;83.42;101717.25;5013223;28;20128;-82
2021/07/14 05:39:14;;;;;;;10.65;2.90;;;;;;;14.49;82.91;101719.09;4999810;28;20018;-81
2021/07/14 05:41:39;;;;;;;6.88;2.40;;;;;;;14.45;82.65;101714.25;5006861;28;20026;-81
2021/07/14 05:44:04;;;;;;;5.07;2.47;;;;;;;14.34;82.86;101707.34;5014271;28;20025;-81
2021/07/14 05:46:30;;;;;;;5.35;2.25;;;;;;;14.30;83.49;101704.16;5008615;28;20036;-80
2021/07/14 05:49:00;;;;;;;9.93;2.17;;;;;;;14.37;83.35;101709.72;5012194;28;20052;-81
2021/07/14 05:51:26;;;;;;;6.13;2.80;;;;;;;14.36;83.04;101708.03;5008903;28;20037;-81
2021/07/14 05:53:51;;;;;;;6.50;2.78;;;;;;;14.40;83.19;101722.06;5008354;28;20025;-81
2021/07/14 05:56:17;;;;;;;5.45;2.63;;;;;;;14.43;83.36;101719.00;4993711;28;20558;-81
2021/07/14 05:58:42;;;;;;;5.00;2.53;;;;;;;14.40;83.07;101711.25;5009905;28;20083;-81
2021/07/14 06:01:09;;;;;;;5.43;2.60;;;;;;;14.51;82.85;101717.06;5011667;28;20079;-81
2021/07/14 06:03:34;;;;;;;7.70;2.40;;;;;;;14.48;83.00;101706.63;4992675;28;20032;-81
2021/07/14 06:06:00;;;;;;;5.15;2.67;;;;;;;14.57;82.86;101726.38;5011077;28;20104;-81
2021/07/14 06:08:25;;;;;;;7.43;2.75;;;;;;;14.55;82.88;101723.00;5005446;28;20270;-82
2021/07/14 06:10:52;;;;;;;5.57;2.60;;;;;;;14.51;82.96;101725.19;4994231;28;20060;-81
2021/07/14 06:13:18;;;;;;;7.68;2.42;;;;;;;14.60;82.79;101731.41;5015419;28;20026;-81
2021/07/14 06:15:43;;;;;;;6.95;2.58;;;;;;;14.57;82.85;101730.94;5009337;28;20049;-81
2021/07/14 06:18:09;;;;;;;6.72;3.03;;;;;;;14.63;82.33;101739.22;5011218;28;20044;-80
2021/07/14 06:20:34;;;;;;;8.82;3.88;;;;;;;14.53;82.19;101735.88;5025237;28;20022;-82
2021/07/14 06:23:00;;;;;;;12.63;3.08;;;;;;;14.50;82.12;101734.34;5013713;28;20022;-81
2021/07/14 06:25:25;;;;;;;6.63;3.00;;;;;;;14.50;82.31;101734.34;5014820;28;20388;-80
2021/07/14 06:27:51;;;;;;;5.38;2.63;;;;;;;14.49;82.54;101732.63;5021104;28;20025;-81
2021/07/14 06:30:18;;;;;;;6.18;2.53;;;;;;;14.67;82.27;101739.69;5015055;28;20022;-81
2021/07/14 06:32:44;;;;;;;7.72;2.38;;;;;;;14.68;81.78;101731.38;5018375;28;20022;-81
2021/07/14 06:35:11;;;;;;;7.03;2.78;;;;;;;14.74;81.91;101743.38;5009358;28;20033;-81
2021/07/14 06:37:38;;;;;;;7.22;2.63;;;;;;;14.75;81.60;101736.09;5015640;28;20030;-81
2021/07/14 06:40:08;;;;;;;4.85;2.45;;;;;;;14.91;81.37;101739.50;5018592;28;20518;-81
2021/07/14 06:42:33;;;;;;;8.95;2.60;;;;;;;15.00;81.27;101744.88;5015826;28;20036;-81
2021/07/14 06:44:59;;;;;;;4.93;3.13;;;;;;;14.98;81.21;101739.66;5009141;28;20041;-81
2021/07/14 06:47:24;;;;;;;9.23;2.72;;;;;;;15.11;80.92;101742.59;5020773;28;20139;-82
2021/07/14 06:49:50;;;;;;;6.00;3.05;;;;;;;15.30;79.73;101757.50;5009115;28;20026;-81
2021/07/14 06:52:15;;;;;;;7.85;2.90;;;;;;;15.35;79.27;101749.66;4995488;28;20376;-81
2021/07/14 06:54:40;;;;;;;5.50;2.30;;;;;;;15.49;79.14;101758.00;5014501;28;20026;-82
2021/07/14 06:57:06;;;;;;;4.65;2.53;;;;;;;15.43;78.97;101745.16;5014726;28;20030;-80
2021/07/14 06:59:32;;;;;;;6.05;3.35;;;;;;;15.49;78.75;101760.72;4999321;28;20117;-81
2021/07/14 07:02:01;;;;;;;8.45;2.90;;;;;;;15.47;78.79;101741.09;5013003;28;20149;-82
2021/07/14 07:04:28;;;;;;;8.68;2.88;;;;;;;15.74;78.47;101756.75;5012078;28;20042;-82
2021/07/14 07:06:53;;;;;;;4.80;2.10;;;;;;;15.84;78.00;101745.63;5017194;28;20643;-81
2021/07/14 07:09:19;;;;;;;5.13;2.38;;;;;;;16.00;77.54;101758.19;4998656;28;20025;-82
2021/07/14 07:11:44;;;;;;;8.95;3.15;;;;;;;16.07;76.07;101763.72;5012364;28;20025;-81
2021/07/14 07:14:09;;;;;;;4.70;2.13;;;;;;;15.99;75.65;101764.63;4999650;28;20404;-81
2021/07/14 07:16:35;;;;;;;5.72;2.15;;;;;;;16.08;74.85;101766.22;5014618;28;20033;-81
2021/07/14 07:19:00;;;;;;;4.63;2.20;;;;;;;16.25;74.14;101784.00;5019013;28;20033;-81
2021/07/14 07:21:26;;;;;;;5.47;2.55;;;;;;;16.31;73.48;101782.41;5016064;28;20026;-81
2021/07/14 07:23:52;;;;;;;3.88;2.10;;;;;;;16.32;72.32;101777.81;5013450;28;20030;-81
2021/07/14 07:26:17;;;;;;;4.95;2.20;;;;;;;16.39;71.76;101779.56;5019622;28;20026;-81
2021/07/14 07:28:43;;;;;;;6.38;2.20;;;;;;;16.36;71.95;101781.84;5015697;28;20224;-80
2021/07/14 07:31:09;;;;;;;4.10;2.20;;;;;;;16.33;71.72;101779.50;5017370;28;20032;-81
2021/07/14 07:33:36;;;;;;;4.80;1.85;;;;;;;16.35;71.33;101770.13;5016104;28;20575;-81
2021/07/14 07:36:02;;;;;;;4.15;1.85;;;;;;;16.32;71.15;101780.53;5002186;28;20022;-80
2021/07/14 07:38:28;;;;;;;5.63;2.45;;;;;;;16.39;70.35;101767.88;5019575;28;20030;-80
2021/07/14 07:40:54;;;;;;;3.15;1.85;;;;;;;16.49;70.05;101777.41;5012391;28;20105;-81
2021/07/14 07:43:21;;;;;;;4.00;2.15;;;;;;;16.47;69.02;101782.19;5014754;28;20123;-82
2021/07/14 07:45:46;;;;;;;3.33;1.80;;;;;;;16.43;68.82;101786.31;5013874;28;20045;-80
2021/07/14 07:48:12;;;;;;;2.85;1.70;;;;;;;16.38;69.25;101777.91;5009917;28;20022;-81
2021/07/14 07:50:38;;;;;;;4.10;1.85;;;;;;;16.40;69.10;101780.41;5003253;28;20032;-81
2021/07/14 07:53:03;;;;;;;3.78;1.80;;;;;;;16.38;69.20;101780.63;5021923;28;20057;-81
2021/07/14 07:55:29;;;;;;;4.35;1.70;;;;;;;16.43;69.05;101786.31;5017204;28;20480;-81
2021/07/14 07:57:54;;;;;;;3.35;1.70;;;;;;;16.40;68.96;101777.69;5017116;28;20048;-81
2021/07/14 08:00:21;;;;;;;4.47;1.90;;;;;;;16.31;69.04;101760.69;5016771;28;20025;-81
2021/07/14 08:02:46;;;;;;;3.30;1.88;;;;;;;16.48;68.74;101796.59;5019614;28;20392;-82
2021/07/14 08:05:12;;;;;;;4.57;1.65;;;;;;;16.53;68.80;101791.44;5018694;28;20022;-81
2021/07/14 08:07:38;;;;;;;5.05;1.50;;;;;;;16.58;68.29;101794.44;5014553;28;20032;-82
2021/07/14 08:10:05;;;;;;;4.85;1.55;;;;;;;16.61;68.44;101795.91;5014778;28;20029;-82
2021/07/14 08:12:31;;;;;;;5.30;1.50;;;;;;;16.67;68.49;101804.16;5011434;28;20047;-82
2021/07/14 08:14:56;;;;;;;4.68;1.80;;;;;;;16.66;68.83;101797.03;4999078;28;20412;-81
2021/07/14 08:17:22;;;;;;;3.83;1.75;;;;;;;16.46;68.61;101764.22;5016163;28;20125;-81
2021/07/14 08:19:48;;;;;;;3.10;1.80;;;;;;;16.71;68.58;101799.19;5018751;28;20515;-79
2021/07/14 08:22:13;;;;;;;3.38;1.40;;;;;;;16.86;68.14;101796.47;5013228;28;20013;-81
2021/07/14 08:24:39;;;;;;;5.68;1.52;;;;;;;16.93;67.57;101800.06;5016211;28;20025;-81
2021/07/14 08:27:04;;;;;;;3.92;1.50;;;;;;;17.08;67.35;101806.31;5016367;28;20018;-81
2021/07/14 08:29:30;;;;;;;5.20;1.65;;;;;;;17.20;67.69;101809.38;5018656;28;20554;-81
2021/07/14 08:31:55;;;;;;;5.68;1.70;;;;;;;17.22;67.01;101807.28;5008335;28;20061;-81
2021/07/14 08:34:21;;;;;;;5.38;1.65;;;;;;;17.27;67.61;101814.84;5012224;28;20072;-82
2021/07/14 08:36:46;;;;;;;3.63;1.50;;;;;;;17.20;67.91;101811.22;5012920;28;20026;-81
2021/07/14 08:39:12;;;;;;;4.03;1.58;;;;;;;17.11;68.26;101808.63;5008653;28;20077;-81
2021/07/14 08:41:41;;;;;;;3.38;1.73;;;;;;;17.08;67.92;101802.75;5001375;28;20168;-82
2021/07/14 08:44:07;;;;;;;4.28;1.63;;;;;;;17.16;68.21;101815.38;5011749;28;20022;-81
2021/07/14 08:46:34;;;;;;;2.85;1.48;;;;;;;17.22;67.98;101820.03;5012196;28;20042;-81
2021/07/14 08:49:03;;;;;;;5.30;1.70;;;;;;;17.11;68.61;101813.22;5007675;28;20193;-81
2021/07/14 08:51:31;;;;;;;4.60;1.55;;;;;;;17.17;68.73;101819.75;5014662;28;20033;-82
2021/07/14 08:53:57;;;;;;;5.03;1.80;;;;;;;17.26;68.59;101832.22;4996302;28;20026;-82
2021/07/14 08:56:22;;;;;;;6.07;2.33;;;;;;;17.24;68.61;101818.81;4998083;28;20024;-81
2021/07/14 08:58:47;;;;;;;4.32;1.83;;;;;;;17.22;68.38;101833.63;5011467;28;20384;-81
2021/07/14 09:01:13;;;;;;;6.03;2.33;;;;;;;17.21;68.56;101827.34;5008113;28;20026;-78
2021/07/14 09:03:38;;;;;;;4.78;1.92;;;;;;;17.24;68.33;101824.22;5008388;28;20026;-78
2021/07/14 09:06:04;;;;;;;4.97;2.33;;;;;;;17.20;68.59;101812.09;5007613;28;20507;-78
2021/07/14 09:08:29;;;;;;;4.20;1.98;;;;;;;17.14;68.51;101810.97;5009729;28;20037;-78
2021/07/14 09:10:55;;;;;;;6.90;2.30;;;;;;;17.13;68.71;101811.16;5006114;28;20037;-78
2021/07/14 09:13:31;;;;;;;4.30;2.08;;;;;;;17.11;68.28;101816.78;5006896;28;20476;-78
2021/07/14 09:15:57;;;;;;;5.00;2.03;;;;;;;16.87;68.82;101800.84;5009517;28;20033;-79
2021/07/14 09:18:24;;;;;;;4.50;1.95;;;;;;;16.79;69.49;101814.56;5010298;28;20018;-79
2021/07/14 09:20:49;;;;;;;5.75;2.00;;;;;;;16.83;69.92;101821.28;5010495;28;20108;-79
2021/07/14 09:23:33;;;;;;;8.52;2.28;;;;;;;16.81;70.41;101821.47;5007443;28;20092;-79
2021/07/14 09:26:03;;;;;;;3.50;2.17;;;;;;;16.78;70.85;101816.44;4992624;28;20030;-79
2021/07/14 09:28:37;;;;;;;4.50;1.95;;;;;;;16.77;71.50;101824.72;5009138;28;20068;-80
2021/07/14 09:31:08;;;;;;;4.25;1.80;;;;;;;16.72;72.09;101822.56;5015315;28;20029;-80
2021/07/14 09:33:34;;;;;;;4.65;2.30;;;;;;;16.57;72.94;101832.66;5008813;28;20083;-80
2021/07/14 09:36:00;;;;;;;9.52;1.95;;;;;;;16.44;74.01;101836.88;5003949;28;20041;-80
2021/07/14 09:38:31;;;;;;;6.90;2.10;;;;;;;16.41;74.82;101836.41;5001229;28;20029;-80
2021/07/14 09:40:59;;;;;;;3.25;1.67;;;;;;;16.50;75.36;101837.97;5008965;28;20026;-80
2021/07/14 09:43:30;;;;;;;9.65;2.28;;;;;;;16.53;75.13;101834.88;4992097;28;20026;-78
2021/07/14 09:46:02;;;;;;;5.97;1.70;;;;;;;16.48;75.52;101834.59;5007581;28;20808;-78
2021/07/14 09:48:31;;;;;;;5.20;2.00;;;;;;;16.47;76.13;101831.06;5008739;28;20032;-80
2021/07/14 09:51:03;;;;;;;6.28;2.17;;;;;;;16.49;76.23;101828.16;4991757;28;20616;-79
2021/07/14 09:53:34;;;;;;;30.23;22.80;;;;;;;16.53;76.23;101828.63;4992385;28;20036;-78
2021/07/14 09:56:09;;;;;;;9.68;6.47;;;;;;;16.66;76.01;101826.06;5006647;28;20036;-79
2021/07/14 09:58:35;;;;;;;5.40;2.85;;;;;;;16.87;75.89;101818.00;5008420;28;20566;-78
2021/07/14 10:01:04;;;;;;;3.90;1.80;;;;;;;17.06;74.34;101818.41;5009075;28;20077;-79
2021/07/14 10:03:34;;;;;;;4.22;1.80;;;;;;;17.14;73.90;101832.69;5002259;28;20041;-80
2021/07/14 10:06:06;;;;;;;5.97;2.80;;;;;;;17.09;73.32;101809.84;5008775;28;20025;-80
2021/07/14 10:08:47;;;;;;;11.25;7.53;;;;;;;17.18;74.01;101832.34;5009716;28;20034;-79
2021/07/14 10:11:21;;;;;;;5.68;3.38;;;;;;;17.20;73.26;101831.13;5006765;28;20504;-79
2021/07/14 10:13:53;;;;;;;;;;;;;;;17.13;73.58;101831.03;5002843;28;20026;-79
2021/07/14 10:16:19;;;;;;;3.15;1.45;;;;;;;17.04;73.38;101831.34;5006308;28;19913;-79
2021/07/14 10:19:01;;;;;;;2.80;1.50;;;;;;;16.92;73.60;101829.13;5007879;28;20120;-78
2021/07/14 10:21:28;;;;;;;5.68;1.75;;;;;;;16.96;74.27;101823.31;5008697;28;20021;-79
2021/07/14 10:23:54;;;;;;;3.47;1.38;;;;;;;17.05;74.15;101828.44;5008692;28;20018;-80
2021/07/14 10:26:19;;;;;;;3.83;1.35;;;;;;;17.12;74.02;101829.34;5007306;28;20017;-78
2021/07/14 10:28:45;;;;;;;5.90;2.13;;;;;;;17.18;73.67;101837.78;5008457;28;20030;-79
2021/07/14 10:31:12;;;;;;;3.05;1.88;;;;;;;17.26;73.62;101826.78;5014332;28;20124;-78
2021/07/14 10:33:41;;;;;;;4.32;2.30;;;;;;;17.38;73.38;101824.38;5008468;28;20018;-78
2021/07/14 10:36:09;;;;;;;6.97;2.28;;;;;;;17.48;73.33;101812.13;5007510;28;20022;-79
2021/07/14 10:38:36;;;;;;;6.40;2.83;;;;;;;17.63;73.31;101814.75;5007355;28;20564;-79
2021/07/14 10:41:02;;;;;;;8.50;2.33;;;;;;;17.65;72.83;101806.38;5008816;28;20393;-78
2021/07/14 10:43:31;;;;;;;6.00;2.42;;;;;;;17.70;72.47;101809.38;5007526;28;20026;-80
2021/07/14 10:45:56;;;;;;;5.97;2.65;;;;;;;17.64;72.71;101815.59;5009145;28;20503;-79
2021/07/14 10:48:23;;;;;;;34.55;15.57;;;;;;;17.57;72.68;101812.81;5011523;28;20038;-80
2021/07/14 10:50:50;;;;;;;13.23;6.78;;;;;;;17.46;73.33;101813.34;5009681;28;20499;-78
2021/07/14 10:53:17;;;;;;;12.10;5.72;;;;;;;17.53;73.72;101811.53;4992354;28;20021;-79
2021/07/14 10:55:44;;;;;;;9.85;3.08;;;;;;;17.61;73.96;101811.41;5011702;28;20029;-80
2021/07/14 10:58:11;;;;;;;7.63;2.67;;;;;;;17.87;73.58;101827.13;5027012;28;20021;-80
2021/07/14 11:00:41;;;;;;;3.70;1.55;;;;;;;17.92;73.27;101827.38;4994805;28;20075;-78
2021/07/14 11:03:07;;;;;;;4.05;1.70;;;;;;;18.01;72.75;101838.94;5011377;28;20041;-79
2021/07/14 11:05:35;;;;;;;5.45;1.45;;;;;;;18.00;72.07;101831.81;5012026;28;20030;-80
2021/07/14 11:08:01;;;;;;;3.35;1.42;;;;;;;17.99;71.90;101835.56;5011203;28;20030;-78
2021/07/14 11:10:27;;;;;;;5.65;1.95;;;;;;;18.04;71.54;101830.38;5011347;28;20045;-80
2021/07/14 11:12:53;;;;;;;34.05;17.65;;;;;;;17.99;71.80;101828.25;5012237;28;20021;-79
2021/07/14 11:15:34;;;;;;;3.85;1.95;;;;;;;17.93;72.01;101834.47;5011150;28;20036;-78
2021/07/14 11:18:02;;;;;;;4.97;2.13;;;;;;;17.97;72.67;101833.06;5003680;28;20030;-80
2021/07/14 11:20:39;;;;;;;2.83;1.27;;;;;;;18.09;72.34;101844.22;5008587;28;20018;-80
2021/07/14 11:23:22;;;;;;;2.30;1.20;;;;;;;18.10;71.90;101831.44;5011184;28;20022;-79
2021/07/14 11:25:50;;;;;;;5.22;1.30;;;;;;;18.17;71.88;101845.94;5004562;28;20029;-77
2021/07/14 11:28:16;;;;;;;2.20;0.95;;;;;;;18.29;71.35;101836.19;5011159;28;20105;-80
2021/07/14 11:30:46;;;;;;;2.63;1.10;;;;;;;18.39;71.11;101833.09;5017098;28;20026;-80
2021/07/14 11:33:27;;;;;;;2.63;1.10;;;;;;;18.41;71.09;101840.00;5009425;28;20025;-78